createdAt,value
2019-05-01T00:00:50.498Z,5.0
2019-05-01T00:02:50.515Z,5.6
2019-05-01T00:04:50.220Z,5.6
2019-05-01T00:06:50.133Z,5.2
2019-05-01T00:08:50.203Z,5.4
2019-05-01T00:10:50.231Z,5.5
2019-05-01T00:12:50.230Z,5.3
2019-05-01T00:14:50.313Z,5.3
2019-05-01T00:16:49.561Z,5.6
2019-05-01T00:18:49.557Z,5.9
2019-05-01T00:20:49.588Z,6.0
2019-05-01T00:22:49.591Z,5.8
2019-05-01T00:24:49.692Z,5.8
2019-05-01T00:26:49.958Z,5.4
2019-05-01T00:28:49.978Z,5.7
2019-05-01T00:30:50.039Z,6.1
2019-05-01T00:32:50.038Z,6.2
2019-05-01T00:34:50.390Z,6.2
2019-05-01T00:36:49.588Z,5.9
2019-05-01T00:38:49.696Z,6.0
2019-05-01T00:40:49.715Z,6.2
2019-05-01T00:42:49.802Z,6.2
2019-05-01T00:44:49.831Z,6.0
2019-05-01T00:46:50.109Z,6.0
2019-05-01T00:48:50.110Z,6.2
2019-05-01T00:50:50.227Z,6.5
2019-05-01T00:52:50.280Z,6.5
2019-05-01T00:54:50.313Z,6.3
2019-05-01T00:56:50.302Z,6.2
2019-05-01T00:58:50.339Z,6.2
2019-05-01T01:00:50.434Z,6.0
2019-05-01T01:02:50.401Z,6.1
2019-05-01T01:04:49.830Z,6.4
2019-05-01T01:06:49.993Z,6.1
2019-05-01T01:08:50.069Z,6.5
2019-05-01T01:10:50.135Z,6.1
2019-05-01T01:12:50.156Z,6.1
2019-05-01T01:14:50.167Z,6.0
2019-05-01T01:16:50.322Z,6.3
2019-05-01T01:18:50.450Z,6.5
2019-05-01T01:20:50.505Z,6.3
2019-05-01T01:22:49.615Z,6.3
2019-05-01T01:24:49.841Z,6.4
2019-05-01T01:26:50.160Z,6.6
2019-05-01T01:28:50.279Z,6.2
2019-05-01T01:30:56.941Z,6.9
2019-05-01T01:32:50.062Z,6.9
2019-05-01T01:34:50.467Z,6.7
2019-05-01T01:36:49.776Z,6.2
2019-05-01T01:38:49.843Z,6.3
2019-05-01T01:40:49.911Z,6.3
2019-05-01T01:42:49.971Z,6.9
2019-05-01T01:44:50.043Z,6.7
2019-05-01T01:46:50.236Z,6.3
2019-05-01T01:48:50.283Z,6.6
2019-05-01T01:50:50.327Z,6.6
2019-05-01T01:52:50.435Z,6.8
2019-05-01T01:54:50.429Z,6.6
2019-05-01T01:56:49.568Z,7.0
2019-05-01T01:58:49.662Z,6.4
2019-05-01T02:00:49.650Z,6.4
2019-05-01T02:02:49.786Z,7.0
2019-05-01T02:04:50.135Z,7.1
2019-05-01T02:06:50.205Z,7.1
2019-05-01T02:08:56.987Z,7.2
2019-05-01T02:10:49.999Z,6.8
2019-05-01T02:12:50.036Z,7.3
2019-05-01T02:14:50.112Z,7.8
2019-05-01T02:16:50.291Z,7.1
2019-05-01T02:18:50.376Z,7.1
2019-05-01T02:20:50.480Z,7.6
2019-05-01T02:22:49.521Z,7.5
2019-05-01T02:24:50.508Z,7.7
2019-05-01T02:26:49.767Z,7.4
2019-05-01T02:28:49.836Z,7.4
2019-05-01T02:30:49.904Z,7.5
2019-05-01T02:32:50.009Z,7.1
2019-05-01T02:34:50.409Z,7.4
2019-05-01T02:36:49.802Z,7.0
2019-05-01T02:38:49.838Z,7.0
2019-05-01T02:40:49.889Z,7.4
2019-05-01T02:42:50.340Z,7.5
2019-05-01T02:44:50.493Z,7.5
2019-05-01T02:46:49.568Z,7.5
2019-05-01T02:48:53.059Z,7.5
2019-05-01T02:50:49.987Z,7.3
2019-05-01T02:52:50.119Z,7.4
2019-05-01T02:54:50.163Z,7.3
2019-05-01T02:56:50.433Z,7.3
2019-05-01T02:58:49.586Z,7.3
2019-05-01T03:00:49.617Z,7.1
2019-05-01T03:02:49.761Z,7.3
2019-05-01T03:04:50.208Z,7.1
2019-05-01T03:06:50.522Z,7.9
2019-05-01T03:08:49.567Z,7.9
2019-05-01T03:10:49.589Z,7.6
2019-05-01T03:12:49.755Z,7.7
2019-05-01T03:14:49.826Z,7.8
2019-05-01T03:16:49.975Z,7.8
2019-05-01T03:18:50.099Z,7.7
2019-05-01T03:20:50.242Z,8.0
2019-05-01T03:22:49.612Z,8.2
2019-05-01T03:24:49.979Z,7.8
2019-05-01T03:26:50.084Z,7.8
2019-05-01T03:28:50.087Z,7.3
2019-05-01T03:30:50.198Z,8.3
2019-05-01T03:32:50.296Z,7.9
2019-05-01T03:34:53.396Z,7.9
2019-05-01T03:36:49.772Z,8.3
2019-05-01T03:38:49.824Z,7.8
2019-05-01T03:40:49.850Z,7.6
2019-05-01T03:42:49.862Z,7.9
2019-05-01T03:44:49.937Z,8.8
2019-05-01T03:46:50.115Z,8.8
2019-05-01T03:48:50.224Z,7.7
2019-05-01T03:50:50.240Z,8.1
2019-05-01T03:52:50.409Z,8.0
2019-05-01T03:54:50.493Z,8.0
2019-05-01T03:56:49.758Z,8.5
2019-05-01T03:58:49.746Z,8.5
2019-05-01T04:00:49.852Z,8.0
2019-05-01T04:02:49.973Z,7.8
2019-05-01T04:04:50.400Z,7.8
2019-05-01T04:06:49.566Z,8.4
2019-05-01T04:08:49.609Z,7.7
2019-05-01T04:10:49.725Z,8.1
2019-05-01T04:12:49.838Z,7.7
2019-05-01T04:14:49.992Z,7.7
2019-05-01T04:16:50.171Z,8.5
2019-05-01T04:18:50.327Z,8.3
2019-05-01T04:20:50.364Z,8.0
2019-05-01T04:22:50.408Z,8.0
2019-05-01T04:24:50.502Z,7.7
2019-05-01T04:26:50.399Z,7.9
2019-05-01T04:28:50.384Z,7.3
2019-05-01T04:30:49.526Z,7.7
2019-05-01T04:32:53.522Z,7.7
2019-05-01T04:34:50.062Z,6.9
2019-05-01T04:36:50.221Z,6.9
2019-05-01T04:38:50.258Z,7.0
2019-05-01T04:40:50.385Z,7.0
2019-05-01T04:42:50.398Z,7.2
2019-05-01T04:44:50.371Z,7.2
2019-05-01T04:46:49.626Z,6.7
2019-05-01T04:48:49.684Z,7.2
2019-05-01T04:50:49.712Z,6.6
2019-05-01T04:52:49.786Z,7.0
2019-05-01T04:54:49.763Z,7.0
2019-05-01T04:56:49.922Z,7.7
2019-05-01T04:58:49.949Z,6.9
2019-05-01T05:00:50.060Z,7.6
2019-05-01T05:02:50.092Z,7.2
2019-05-01T05:04:50.483Z,7.2
2019-05-01T05:06:49.689Z,7.0
2019-05-01T05:08:49.743Z,7.0
2019-05-01T05:10:49.738Z,7.3
2019-05-01T05:12:49.832Z,7.0
2019-05-01T05:14:49.941Z,7.0
2019-05-01T05:16:50.098Z,7.7
2019-05-01T05:18:50.039Z,7.0
2019-05-01T05:20:50.148Z,7.0
2019-05-01T05:22:50.187Z,7.6
2019-05-01T05:24:50.211Z,7.5
2019-05-01T05:26:50.484Z,7.6
2019-05-01T05:28:49.537Z,7.3
2019-05-01T05:30:49.591Z,7.7
2019-05-01T05:32:49.718Z,7.7
2019-05-01T05:34:50.205Z,7.3
2019-05-01T05:36:49.813Z,7.3
2019-05-01T05:38:49.912Z,7.7
2019-05-01T05:40:49.909Z,7.7
2019-05-01T05:42:49.936Z,7.6
2019-05-01T05:44:50.008Z,7.4
2019-05-01T05:46:50.241Z,7.2
2019-05-01T05:48:50.182Z,7.2
2019-05-01T05:50:50.183Z,9.2
2019-05-01T05:52:50.214Z,8.4
2019-05-01T05:54:50.237Z,9.0
2019-05-01T05:56:49.822Z,8.1
2019-05-01T05:58:49.858Z,7.8
2019-05-01T06:00:49.930Z,7.8
2019-05-01T06:02:49.967Z,8.1
2019-05-01T06:04:50.380Z,7.8
2019-05-01T06:06:49.790Z,7.6
2019-05-01T06:08:49.834Z,8.1
2019-05-01T06:10:58.359Z,8.1
2019-05-01T06:12:50.015Z,8.7
2019-05-01T06:14:50.078Z,8.9
2019-05-01T06:16:53.929Z,8.8
2019-05-01T06:18:50.138Z,8.6
2019-05-01T06:20:50.230Z,8.6
2019-05-01T06:22:50.198Z,8.6
2019-05-01T06:24:50.203Z,8.9
2019-05-01T06:26:50.356Z,9.1
2019-05-01T06:28:50.389Z,9.0
2019-05-01T06:30:50.407Z,9.0
2019-05-01T06:32:50.497Z,8.9
2019-05-01T06:34:50.013Z,9.2
2019-05-01T06:36:51.480Z,8.7
2019-05-01T06:38:49.520Z,8.7
2019-05-01T06:40:58.043Z,9.1
2019-05-01T06:42:51.230Z,9.5
2019-05-01T06:44:50.287Z,9.8
2019-05-01T06:46:49.986Z,9.8
2019-05-01T06:48:54.682Z,9.3
2019-05-01T06:50:50.564Z,9.9
2019-05-01T06:52:49.682Z,10.0
2019-05-01T06:54:53.579Z,9.7
2019-05-01T06:56:49.794Z,9.7
2019-05-01T06:58:55.416Z,10.2
2019-05-01T07:00:49.523Z,10.9
2019-05-01T07:02:49.728Z,10.2
2019-05-01T07:04:50.302Z,10.7
2019-05-01T07:06:50.483Z,9.9
2019-05-01T07:08:49.537Z,9.9
2019-05-01T07:10:49.643Z,11.9
2019-05-01T07:12:49.590Z,11.6
2019-05-01T07:14:52.103Z,12.2
2019-05-01T07:16:49.520Z,12.2
2019-05-01T07:18:50.016Z,12.3
2019-05-01T07:20:53.117Z,11.9
2019-05-01T07:22:49.544Z,11.9
2019-05-01T07:24:49.633Z,13.3
2019-05-01T07:26:49.854Z,13.6
2019-05-01T07:28:49.949Z,13.6
2019-05-01T07:30:55.246Z,14.1
2019-05-01T07:32:50.218Z,13.9
2019-05-01T07:34:49.631Z,14.5
2019-05-01T07:36:51.708Z,14.5
2019-05-01T07:38:49.789Z,14.3
2019-05-01T07:40:49.770Z,13.6
2019-05-01T07:42:49.825Z,14.5
2019-05-01T07:44:49.842Z,14.5
2019-05-01T07:46:56.178Z,14.6
2019-05-01T07:48:50.508Z,16.3
2019-05-01T07:50:50.490Z,16.4
2019-05-01T07:52:53.977Z,17.4
2019-05-01T07:54:50.062Z,17.4
2019-05-01T07:56:50.155Z,17.4
2019-05-01T07:58:53.350Z,15.3
2019-05-01T08:00:50.442Z,16.2
2019-05-01T08:02:50.486Z,16.1
2019-05-01T08:04:50.001Z,16.9
2019-05-01T08:06:57.256Z,16.9
2019-05-01T08:08:49.697Z,16.9
2019-05-01T08:10:49.821Z,16.7
2019-05-01T08:12:49.908Z,17.3
2019-05-01T08:14:53.657Z,17.3
2019-05-01T08:16:49.863Z,18.1
2019-05-01T08:18:49.858Z,18.3
2019-05-01T08:20:51.562Z,19.5
2019-05-01T08:22:49.521Z,19.5
2019-05-01T08:24:58.195Z,20.6
2019-05-01T08:26:50.066Z,21.0
2019-05-01T08:28:50.093Z,19.8
2019-05-01T08:30:53.996Z,19.9
2019-05-01T08:32:50.433Z,21.3
2019-05-01T08:34:49.947Z,21.3
2019-05-01T08:36:50.169Z,21.8
2019-05-01T08:38:50.159Z,22.5
2019-05-01T08:40:55.402Z,20.8
2019-05-01T08:42:49.824Z,20.0
2019-05-01T08:44:49.930Z,20.0
2019-05-01T08:46:52.136Z,21.0
2019-05-01T08:48:50.182Z,19.9
2019-05-01T08:50:50.216Z,21.5
2019-05-01T08:52:50.225Z,21.0
2019-05-01T08:54:50.387Z,21.0
2019-05-01T08:56:57.950Z,21.6
2019-05-01T08:58:50.674Z,21.7
2019-05-01T09:00:49.751Z,22.6
2019-05-01T09:02:49.729Z,22.6
2019-05-01T09:05:02.268Z,23.6
2019-05-01T09:06:50.314Z,21.8
2019-05-01T09:08:50.280Z,23.0
2019-05-01T09:10:59.915Z,23.7
2019-05-01T09:12:52.258Z,23.7
2019-05-01T09:14:51.507Z,24.7
2019-05-01T09:16:52.663Z,24.6
2019-05-01T09:18:49.727Z,24.6
2019-05-01T09:20:49.874Z,25.5
2019-05-01T09:22:49.907Z,24.3
2019-05-01T09:24:49.820Z,24.8
2019-05-01T09:26:51.613Z,24.6
2019-05-01T09:28:49.598Z,25.9
2019-05-01T09:30:49.638Z,26.9
2019-05-01T09:32:55.503Z,26.9
2019-05-01T09:34:50.047Z,27.1
2019-05-01T09:36:50.207Z,27.1
2019-05-01T09:38:50.359Z,25.4
2019-05-01T09:40:50.356Z,25.4
2019-05-01T09:42:50.397Z,25.3
2019-05-01T09:44:49.642Z,26.2
2019-05-01T09:46:49.878Z,25.8
2019-05-01T09:48:50.119Z,24.4
2019-05-01T09:50:50.148Z,24.4
2019-05-01T09:52:50.381Z,25.8
2019-05-01T09:54:50.293Z,26.3
2019-05-01T09:56:49.759Z,26.3
2019-05-01T09:58:49.781Z,23.9
2019-05-01T10:00:53.900Z,24.9
2019-05-01T10:02:50.061Z,25.2
2019-05-01T10:04:50.390Z,24.2
2019-05-01T10:06:54.040Z,24.4
2019-05-01T10:08:50.062Z,22.8
2019-05-01T10:10:50.160Z,22.8
2019-05-01T10:12:50.225Z,22.8
2019-05-01T10:14:50.206Z,22.8
2019-05-01T10:16:50.452Z,22.8
2019-05-01T10:18:50.497Z,22.7
2019-05-01T10:20:49.523Z,22.7
2019-05-01T10:22:49.613Z,22.9
2019-05-01T10:24:49.641Z,22.8
2019-05-01T10:26:49.818Z,22.4
2019-05-01T10:28:51.583Z,22.3
2019-05-01T10:30:49.781Z,22.3
2019-05-01T10:32:57.617Z,22.5
2019-05-01T10:34:50.037Z,22.3
2019-05-01T10:36:55.832Z,23.8
2019-05-01T10:38:49.907Z,23.8
2019-05-01T10:40:49.952Z,22.5
2019-05-01T10:42:49.980Z,22.2
2019-05-01T10:44:50.015Z,23.7
2019-05-01T10:46:50.351Z,23.7
2019-05-01T10:48:50.388Z,22.8
2019-05-01T10:50:50.493Z,22.4
2019-05-01T10:52:49.532Z,22.3
2019-05-01T10:54:50.491Z,23.6
2019-05-01T10:56:49.675Z,22.6
2019-05-01T10:58:49.658Z,22.6
2019-05-01T11:00:49.687Z,22.0
2019-05-01T11:02:49.793Z,21.6
2019-05-01T11:04:50.270Z,22.0
2019-05-01T11:06:50.378Z,21.4
2019-05-01T11:08:50.398Z,21.4
2019-05-01T11:10:50.408Z,22.8
2019-05-01T11:12:49.617Z,22.5
2019-05-01T11:14:49.703Z,22.7
2019-05-01T11:16:49.938Z,22.8
2019-05-01T11:18:50.016Z,22.8
2019-05-01T11:20:50.070Z,23.4
2019-05-01T11:22:50.140Z,23.3
2019-05-01T11:24:50.164Z,23.0
2019-05-01T11:26:50.326Z,23.6
2019-05-01T11:28:50.361Z,23.6
2019-05-01T11:30:50.479Z,22.9
2019-05-01T11:32:50.514Z,23.1
2019-05-01T11:34:49.961Z,23.3
2019-05-01T11:36:49.945Z,23.3
2019-05-01T11:38:49.985Z,23.6
2019-05-01T11:40:50.259Z,23.5
2019-05-01T11:42:50.358Z,23.6
2019-05-01T11:44:50.491Z,23.4
2019-05-01T11:46:49.647Z,23.4
2019-05-01T11:48:49.772Z,23.9
2019-05-01T11:50:49.735Z,24.3
2019-05-01T11:52:49.849Z,24.8
2019-05-01T11:54:49.938Z,24.0
2019-05-01T11:56:50.071Z,24.0
2019-05-01T11:58:50.115Z,24.2
2019-05-01T12:00:50.028Z,24.2
2019-05-01T12:02:50.064Z,25.4
2019-05-01T12:04:50.488Z,25.4
2019-05-01T12:06:49.706Z,25.4
2019-05-01T12:08:49.616Z,26.0
2019-05-01T12:10:49.699Z,25.1
2019-05-01T12:12:49.680Z,25.3
2019-05-01T12:14:49.723Z,25.3
2019-05-01T12:16:49.799Z,24.3
2019-05-01T12:18:49.823Z,25.0
2019-05-01T12:20:49.836Z,23.9
2019-05-01T12:22:51.785Z,25.3
2019-05-01T12:24:49.811Z,25.3
2019-05-01T12:26:49.857Z,25.2
2019-05-01T12:28:49.845Z,24.9
2019-05-01T12:30:49.827Z,24.6
2019-05-01T12:32:49.904Z,24.6
2019-05-01T12:34:50.347Z,24.2
2019-05-01T12:36:50.466Z,24.7
2019-05-01T12:38:50.529Z,24.5
2019-05-01T12:40:50.498Z,24.0
2019-05-01T12:42:49.611Z,25.8
2019-05-01T12:44:49.637Z,25.8
2019-05-01T12:46:49.703Z,24.8
2019-05-01T12:48:49.789Z,24.6
2019-05-01T12:50:49.834Z,24.6
2019-05-01T12:52:49.820Z,24.2
2019-05-01T12:54:52.242Z,24.2
2019-05-01T12:56:49.526Z,23.8
2019-05-01T12:58:49.646Z,23.8
2019-05-01T13:00:49.663Z,23.8
2019-05-01T13:02:49.741Z,21.5
2019-05-01T13:04:50.303Z,21.5
2019-05-01T13:06:50.422Z,21.8
2019-05-01T13:08:50.425Z,19.8
2019-05-01T13:10:50.520Z,19.8
2019-05-01T13:12:49.663Z,20.8
2019-05-01T13:14:49.631Z,21.1
2019-05-01T13:16:49.935Z,22.3
2019-05-01T13:18:49.965Z,20.3
2019-05-01T13:20:50.003Z,20.1
2019-05-01T13:22:49.974Z,20.1
2019-05-01T13:24:50.022Z,19.2
2019-05-01T13:26:50.234Z,19.5
2019-05-01T13:28:50.020Z,17.4
2019-05-01T13:30:50.532Z,18.4
2019-05-01T13:32:50.458Z,18.4
2019-05-01T13:34:49.752Z,17.8
2019-05-01T13:37:02.986Z,18.4
2019-05-01T13:38:50.090Z,18.1
2019-05-01T13:40:50.154Z,17.9
2019-05-01T13:42:50.191Z,17.9
2019-05-01T13:44:50.273Z,17.0
2019-05-01T13:46:50.406Z,17.2
2019-05-01T13:48:49.538Z,17.2
2019-05-01T13:50:49.645Z,16.6
2019-05-01T13:52:49.585Z,16.6
2019-05-01T13:54:49.704Z,16.3
2019-05-01T13:56:49.838Z,16.3
2019-05-01T13:58:49.896Z,16.5
2019-05-01T14:00:49.987Z,16.5
2019-05-01T14:02:50.023Z,15.8
2019-05-01T14:04:50.351Z,16.0
2019-05-01T14:06:50.469Z,16.2
2019-05-01T14:08:50.434Z,16.2
2019-05-01T14:10:50.414Z,16.2
2019-05-01T14:12:49.530Z,15.8
2019-05-01T14:14:50.494Z,15.4
2019-05-01T14:16:49.710Z,14.9
2019-05-01T14:18:49.683Z,15.3
2019-05-01T14:20:49.733Z,15.3
2019-05-01T14:22:49.942Z,14.5
2019-05-01T14:24:49.700Z,14.2
2019-05-01T14:26:49.874Z,14.9
2019-05-01T14:28:49.974Z,14.6
2019-05-01T14:30:50.021Z,14.6
2019-05-01T14:32:51.975Z,14.3
2019-05-01T14:34:50.318Z,13.3
2019-05-01T14:36:50.463Z,13.3
2019-05-01T14:38:50.394Z,10.8
2019-05-01T14:40:50.361Z,10.8
2019-05-01T14:42:50.434Z,11.2
2019-05-01T14:44:50.974Z,12.5
2019-05-01T14:46:50.150Z,11.7
2019-05-01T14:48:50.111Z,11.1
2019-05-01T14:50:50.260Z,11.1
2019-05-01T14:52:50.222Z,11.4
2019-05-01T14:54:50.372Z,11.9
2019-05-01T14:56:49.537Z,9.0
2019-05-01T14:58:49.644Z,9.2
2019-05-01T15:00:49.638Z,9.2
2019-05-01T15:02:49.770Z,9.6
2019-05-01T15:04:50.255Z,10.2
2019-05-01T15:06:50.458Z,10.2
2019-05-01T15:08:50.474Z,10.2
2019-05-01T15:10:50.447Z,10.3
2019-05-01T15:12:50.469Z,8.8
2019-05-01T15:14:49.553Z,9.2
2019-05-01T15:16:49.753Z,9.5
2019-05-01T15:18:49.810Z,9.5
2019-05-01T15:20:49.812Z,8.8
2019-05-01T15:22:49.815Z,8.7
2019-05-01T15:24:49.875Z,8.0
2019-05-01T15:26:50.036Z,8.0
2019-05-01T15:28:50.162Z,7.5
2019-05-01T15:30:50.177Z,8.3
2019-05-01T15:32:50.211Z,7.4
2019-05-01T15:34:49.636Z,7.4
2019-05-01T15:36:49.843Z,6.7
2019-05-01T15:38:49.897Z,6.7
2019-05-01T15:40:49.965Z,6.7
2019-05-01T15:42:49.970Z,6.4
2019-05-01T15:44:50.000Z,6.4
2019-05-01T15:46:50.146Z,6.9
2019-05-01T15:48:50.132Z,6.9
2019-05-01T15:50:50.113Z,7.5
2019-05-01T15:52:50.201Z,7.5
2019-05-01T15:54:50.311Z,9.0
2019-05-01T15:56:49.531Z,9.0
2019-05-01T15:58:50.499Z,9.4
2019-05-01T16:00:49.587Z,10.0
2019-05-01T16:02:49.591Z,8.9
2019-05-01T16:04:50.152Z,8.3
2019-05-01T16:06:50.437Z,8.3
2019-05-01T16:08:50.516Z,8.7
2019-05-01T16:10:49.583Z,7.9
2019-05-01T16:12:49.783Z,8.6
2019-05-01T16:14:49.729Z,9.0
2019-05-01T16:16:50.007Z,9.0
2019-05-01T16:18:50.051Z,9.4
2019-05-01T16:20:50.008Z,9.2
2019-05-01T16:22:50.081Z,8.9
2019-05-01T16:24:50.101Z,8.9
2019-05-01T16:26:50.292Z,8.9
2019-05-01T16:28:50.450Z,9.7
2019-05-01T16:30:50.505Z,9.7
2019-05-01T16:32:49.561Z,9.3
2019-05-01T16:34:49.885Z,9.3
2019-05-01T16:36:50.051Z,10.3
2019-05-01T16:38:50.151Z,9.3
2019-05-01T16:40:50.207Z,9.3
2019-05-01T16:42:50.281Z,10.0
2019-05-01T16:44:50.353Z,10.6
2019-05-01T16:46:49.559Z,10.3
2019-05-01T16:48:49.678Z,10.4
2019-05-01T16:50:49.733Z,10.1
2019-05-01T16:52:49.809Z,10.1
2019-05-01T16:54:59.678Z,10.5
2019-05-01T16:56:49.953Z,10.2
2019-05-01T16:58:50.010Z,9.9
2019-05-01T17:00:50.188Z,10.1
2019-05-01T17:02:50.228Z,10.1
2019-05-01T17:04:50.511Z,10.6
2019-05-01T17:06:49.791Z,10.8
2019-05-01T17:08:50.181Z,10.6
2019-05-01T17:10:50.200Z,10.8
2019-05-01T17:12:50.200Z,10.8
2019-05-01T17:14:50.185Z,10.5
2019-05-01T17:16:50.486Z,11.4
2019-05-01T17:18:50.463Z,10.7
2019-05-01T17:20:50.506Z,10.8
2019-05-01T17:22:51.909Z,10.8
2019-05-01T17:24:49.990Z,11.1
2019-05-01T17:26:50.111Z,11.5
2019-05-01T17:28:50.204Z,10.7
2019-05-01T17:30:50.205Z,11.2
2019-05-01T17:32:50.319Z,11.2
2019-05-01T17:34:49.737Z,10.7
2019-05-01T17:36:50.032Z,10.3
2019-05-01T17:38:50.224Z,10.3
2019-05-01T17:40:53.569Z,11.2
2019-05-01T17:42:49.625Z,11.2
2019-05-01T17:44:49.683Z,10.6
2019-05-01T17:46:49.896Z,11.5
2019-05-01T17:48:49.969Z,11.2
2019-05-01T17:50:50.064Z,10.8
2019-05-01T17:52:50.154Z,10.8
2019-05-01T17:54:50.120Z,10.9
2019-05-01T17:56:55.695Z,12.0
2019-05-01T17:58:49.859Z,11.3
2019-05-01T18:00:49.906Z,11.6
2019-05-01T18:02:49.982Z,11.6
2019-05-01T18:04:50.312Z,12.7
2019-05-01T18:06:50.376Z,13.9
2019-05-01T18:09:03.059Z,13.8
2019-05-01T18:10:49.928Z,15.2
2019-05-01T18:12:49.995Z,15.2
2019-05-01T18:14:50.139Z,13.8
2019-05-01T18:16:50.393Z,13.4
2019-05-01T18:18:50.471Z,13.2
2019-05-01T18:20:49.542Z,13.6
2019-05-01T18:22:49.670Z,13.6
2019-05-01T18:24:58.374Z,12.5
2019-05-01T18:26:49.931Z,13.3
2019-05-01T18:28:50.001Z,13.3
2019-05-01T18:30:56.374Z,12.8
2019-05-01T18:32:52.767Z,13.6
2019-05-01T18:34:50.152Z,13.6
2019-05-01T18:36:50.388Z,13.9
2019-05-01T18:38:50.416Z,14.4
2019-05-01T18:40:50.496Z,14.4
2019-05-01T18:42:50.466Z,14.6
2019-05-01T18:44:49.528Z,14.8
2019-05-01T18:46:49.718Z,15.3
2019-05-01T18:48:49.856Z,15.3
2019-05-01T18:50:56.166Z,16.1
2019-05-01T18:52:49.500Z,16.0
2019-05-01T18:54:49.563Z,16.0
2019-05-01T18:56:49.797Z,16.0
2019-05-01T18:58:49.737Z,16.0
2019-05-01T19:00:49.741Z,16.0
2019-05-01T19:02:49.807Z,14.9
2019-05-01T19:04:50.282Z,15.8
2019-05-01T19:06:50.493Z,16.8
2019-05-01T19:08:50.450Z,16.8
2019-05-01T19:10:50.414Z,15.8
2019-05-01T19:12:50.438Z,16.6
2019-05-01T19:14:49.545Z,16.6
2019-05-01T19:16:49.715Z,17.8
2019-05-01T19:18:49.808Z,17.8
2019-05-01T19:21:00.072Z,17.1
2019-05-01T19:22:50.178Z,17.4
2019-05-01T19:24:50.210Z,17.0
2019-05-01T19:26:50.431Z,18.0
2019-05-01T19:28:49.572Z,18.0
2019-05-01T19:30:50.576Z,18.1
2019-05-01T19:32:49.865Z,17.2
2019-05-01T19:34:50.381Z,18.4
2019-05-01T19:36:51.763Z,17.7
2019-05-01T19:38:49.826Z,17.7
2019-05-01T19:40:49.913Z,18.7
2019-05-01T19:42:57.959Z,18.3
2019-05-01T19:44:56.059Z,18.6
2019-05-01T19:46:50.060Z,18.6
2019-05-01T19:48:52.629Z,18.5
2019-05-01T19:50:49.902Z,18.4
2019-05-01T19:52:50.078Z,18.5
2019-05-01T19:54:50.130Z,19.0
2019-05-01T19:56:50.423Z,19.0
2019-05-01T19:58:50.519Z,19.9
2019-05-01T20:00:49.764Z,20.6
2019-05-01T20:02:58.941Z,20.6
2019-05-01T20:04:52.330Z,21.0
2019-05-01T20:06:49.828Z,20.8
2019-05-01T20:08:50.141Z,20.8
2019-05-01T20:10:50.197Z,21.6
2019-05-01T20:12:50.323Z,21.5
2019-05-01T20:14:50.359Z,21.2
2019-05-01T20:16:51.183Z,21.2
2019-05-01T20:18:50.161Z,21.3
2019-05-01T20:20:50.179Z,20.7
2019-05-01T20:22:55.473Z,20.4
2019-05-01T20:24:49.606Z,20.4
2019-05-01T20:26:49.935Z,20.0
2019-05-01T20:28:50.024Z,21.7
2019-05-01T20:30:50.128Z,21.8
2019-05-01T20:32:50.209Z,21.6
2019-05-01T20:34:54.006Z,21.6
2019-05-01T20:36:50.165Z,21.6
2019-05-01T20:38:50.254Z,21.7
2019-05-01T20:40:50.279Z,21.7
2019-05-01T20:42:50.344Z,22.0
2019-05-01T20:45:04.529Z,22.0
2019-05-01T20:46:50.283Z,22.6
2019-05-01T20:48:50.333Z,21.9
2019-05-01T20:50:50.363Z,22.6
2019-05-01T20:52:50.403Z,22.9
2019-05-01T20:54:50.421Z,22.8
2019-05-01T20:56:49.684Z,22.8
2019-05-01T20:58:49.708Z,22.9
2019-05-01T21:00:54.701Z,22.8
2019-05-01T21:02:49.902Z,22.8
2019-05-01T21:04:50.389Z,22.6
2019-05-01T21:06:49.994Z,24.3
2019-05-01T21:08:50.073Z,23.7
2019-05-01T21:10:51.066Z,24.5
2019-05-01T21:12:50.180Z,23.9
2019-05-01T21:14:51.214Z,23.9
2019-05-01T21:16:50.415Z,25.5
2019-05-01T21:18:50.467Z,26.2
2019-05-01T21:20:50.436Z,25.3
2019-05-01T21:22:49.583Z,24.7
2019-05-01T21:24:49.524Z,24.7
2019-05-01T21:26:49.742Z,24.8
2019-05-01T21:28:49.722Z,23.8
2019-05-01T21:30:49.708Z,25.3
2019-05-01T21:32:49.742Z,25.3
2019-05-01T21:34:50.147Z,25.9
2019-05-01T21:36:54.089Z,26.2
2019-05-01T21:38:50.207Z,25.1
2019-05-01T21:40:50.264Z,25.0
2019-05-01T21:42:55.762Z,25.0
2019-05-01T21:44:49.945Z,24.7
2019-05-01T21:46:50.233Z,25.6
2019-05-01T21:48:50.222Z,24.8
2019-05-01T21:50:50.378Z,24.8
2019-05-01T21:52:50.447Z,24.5
2019-05-01T21:54:56.932Z,24.7
2019-05-01T21:56:50.199Z,25.1
2019-05-01T21:58:50.208Z,25.1
2019-05-01T22:00:50.277Z,25.7
2019-05-01T22:02:50.300Z,25.7
2019-05-01T22:04:49.875Z,25.1
2019-05-01T22:06:53.781Z,25.3
2019-05-01T22:08:49.765Z,25.4
2019-05-01T22:10:52.512Z,25.7
2019-05-01T22:12:50.960Z,25.7
2019-05-01T22:14:50.031Z,26.5
2019-05-01T22:16:56.808Z,26.6
2019-05-01T22:18:50.015Z,25.7
2019-05-01T22:20:50.088Z,25.7
2019-05-01T22:22:50.167Z,26.7
2019-05-01T22:24:50.262Z,27.9
2019-05-01T22:26:50.466Z,26.7
2019-05-01T22:28:55.090Z,26.1
2019-05-01T22:30:50.198Z,26.1
2019-05-01T22:32:50.247Z,27.9
2019-05-01T22:34:49.694Z,26.1
2019-05-01T22:36:49.900Z,26.9
2019-05-01T22:38:50.007Z,28.2
2019-05-01T22:40:50.001Z,28.2
2019-05-01T22:42:50.026Z,28.5
2019-05-01T22:44:50.041Z,28.2
2019-05-01T22:46:50.233Z,26.8
2019-05-01T22:48:50.243Z,26.8
2019-05-01T22:50:50.251Z,27.7
2019-05-01T22:52:50.213Z,27.1
2019-05-01T22:54:50.221Z,27.4
2019-05-01T22:56:49.544Z,28.4
2019-05-01T22:58:49.553Z,26.7
2019-05-01T23:00:49.595Z,26.7
2019-05-01T23:02:49.584Z,27.6
2019-05-01T23:04:53.224Z,27.5
2019-05-01T23:06:50.387Z,27.9
2019-05-01T23:08:50.458Z,26.4
2019-05-01T23:10:49.566Z,26.4
2019-05-01T23:12:49.628Z,27.1
2019-05-01T23:14:49.821Z,26.9
2019-05-01T23:16:50.086Z,27.0
2019-05-01T23:18:53.186Z,27.0
2019-05-01T23:20:50.313Z,27.2
2019-05-01T23:22:50.319Z,26.5
2019-05-01T23:24:50.409Z,26.5
2019-05-01T23:26:53.000Z,27.3
2019-05-01T23:28:50.125Z,27.3
2019-05-01T23:30:50.107Z,27.2
2019-05-01T23:32:50.271Z,28.6
2019-05-01T23:34:49.560Z,26.1
2019-05-01T23:36:49.774Z,26.1
2019-05-01T23:38:49.864Z,27.3
2019-05-01T23:40:52.937Z,26.4
2019-05-01T23:42:54.029Z,27.9
2019-05-01T23:44:50.245Z,27.4
2019-05-01T23:46:50.359Z,27.1
2019-05-01T23:48:50.355Z,27.1
2019-05-01T23:50:50.493Z,27.4
2019-05-01T23:52:50.484Z,27.7
2019-05-01T23:54:50.508Z,27.7
2019-05-01T23:56:49.654Z,27.7
2019-05-01T23:58:49.710Z,27.2
